Terminal Aerodrome Forecast
Issued by NWS

Home | Current Version | Previous Version | Text Only | Print | Product List | Glossary On
Versions: 1 2 3 4 5 6 7 8 9 10 11 12 13 14 15 16 17
000
FTUS43 KGRB 271137
TAFATW
TAF
KATW 271137Z 2712/2812 19005KT 6SM BR SCT003 SCT080
      TEMPO 2712/2713 5SM BR
     FM271300 22005KT P6SM SCT015 SCT100
     FM271500 22009KT P6SM SCT030 SCT100
     FM272200 23008KT P6SM VCSH SCT035 BKN080
     FM280200 27005KT P6SM SCT035 BKN080 PROB30 2806/2812 3SM -SHRA
      BKN035=

USA.gov is the U.S. government's official web portal to all federal, state and local government web resources and services.